Time;durP1;ratioP1;P1;durP2;ratioP2;P2;SDS_P1;SDS_P2;PMS_P1;PMS_P2;Temp;Humidity;BMP_temperature;BMP_pressure;BME280_temperature;BME280_humidity;BME280_pressure;Samples;Min_cycle;Max_cycle;Signal;HPM_P1;HPM_P2
2021/05/06 00:07:41;;;;;;;1.80;1.42;;;;;;;13.23;71.50;100282.84;5096097;28;20040;-71
2021/05/06 00:32:15;;;;;;;1.60;1.50;;;;;;;13.25;72.35;100269.31;5095934;28;20156;-71
2021/05/06 00:34:42;;;;;;;2.08;1.77;;;;;;;13.15;72.58;100275.50;5094016;28;20024;-71
2021/05/06 00:37:15;;;;;;;2.58;1.80;;;;;;;13.15;73.17;100265.13;5094318;28;20038;-73
2021/05/06 00:39:49;;;;;;;2.78;2.00;;;;;;;13.20;72.62;100269.59;5094498;28;20374;-73
2021/05/06 01:06:18;;;;;;;2.00;1.80;;;;;;;13.11;74.13;100255.94;5095038;28;20381;-71
2021/05/06 01:09:19;;;;;;;2.30;1.95;;;;;;;13.17;74.04;100254.41;5093328;28;20031;-71
2021/05/06 01:14:05;;;;;;;6.88;2.17;;;;;;;13.28;74.11;100246.19;5094575;28;20047;-71
2021/05/06 01:16:31;;;;;;;2.75;2.40;;;;;;;13.28;75.05;100255.38;5093838;28;20028;-73
2021/05/06 01:18:56;;;;;;;4.55;4.15;;;;;;;13.17;75.29;100251.63;5093239;28;20481;-71
2021/05/06 01:21:24;;;;;;;4.00;3.60;;;;;;;13.18;76.44;100247.63;5093221;28;20127;-71
2021/05/06 01:23:54;;;;;;;5.05;4.65;;;;;;;13.19;76.78;100240.06;5093144;28;20039;-71
2021/05/06 01:26:33;;;;;;;5.45;4.80;;;;;;;13.31;77.06;100232.25;5095869;28;20089;-71
2021/05/06 01:29:05;;;;;;;4.60;4.10;;;;;;;13.31;76.54;100239.84;5093702;28;20031;-72
2021/05/06 01:31:34;;;;;;;4.95;4.32;;;;;;;13.29;76.69;100231.03;5076564;28;20100;-71
2021/05/06 01:42:22;;;;;;;4.78;4.38;;;;;;;13.20;76.29;100239.66;5094123;28;20199;-72
2021/05/06 01:47:39;;;;;;;;;;;;;;;13.17;77.08;100240.44;5094693;28;20039;-72
2021/05/06 02:00:50;;;;;;;6.85;5.35;;;;;;;13.11;77.23;100231.59;5093629;28;20036;-72
2021/05/06 02:03:18;;;;;;;5.82;4.97;;;;;;;13.11;77.54;100226.00;5092413;28;20032;-72
2021/05/06 02:05:46;;;;;;;6.80;5.00;;;;;;;13.05;77.67;100224.72;5092579;28;20088;-72
2021/05/06 02:08:14;;;;;;;6.40;5.72;;;;;;;13.00;78.20;100225.06;5092658;28;20028;-72
2021/05/06 02:10:43;;;;;;;9.68;6.70;;;;;;;12.97;78.72;100220.22;5093084;28;20492;-72
2021/05/06 02:13:08;;;;;;;11.00;6.75;;;;;;;12.95;78.73;100222.59;5092529;28;20032;-72
2021/05/06 02:15:42;;;;;;;6.90;6.20;;;;;;;12.87;79.11;100214.47;5092441;28;20024;-72
2021/05/06 02:18:10;;;;;;;6.63;5.65;;;;;;;12.88;79.22;100214.09;5092489;28;20028;-72
2021/05/06 02:20:40;;;;;;;6.63;5.93;;;;;;;12.77;79.09;100176.84;5092681;28;20466;-72
2021/05/06 02:23:07;;;;;;;8.85;6.35;;;;;;;12.96;78.92;100207.44;5092387;28;20062;-72
2021/05/06 02:25:33;;;;;;;8.25;5.28;;;;;;;12.92;79.27;100195.41;5092049;28;20060;-72
2021/05/06 02:28:02;;;;;;;6.97;6.20;;;;;;;12.98;78.91;100209.84;5092866;28;20093;-72
2021/05/06 02:30:31;;;;;;;7.38;6.70;;;;;;;12.87;79.21;100206.91;5092337;28;20040;-72
2021/05/06 02:32:57;;;;;;;6.97;6.18;;;;;;;12.87;79.31;100206.91;5092602;28;20035;-72
2021/05/06 02:35:28;;;;;;;7.03;6.40;;;;;;;12.85;79.60;100212.06;5092598;28;20032;-72
2021/05/06 02:37:59;;;;;;;7.72;6.90;;;;;;;12.88;79.52;100210.50;5093111;28;20499;-72
2021/05/06 02:40:26;;;;;;;7.75;6.90;;;;;;;13.16;78.22;100204.50;5092531;28;20020;-72
2021/05/06 02:42:54;;;;;;;8.27;6.78;;;;;;;12.95;78.42;100211.41;5092830;28;20032;-72
2021/05/06 02:45:20;;;;;;;7.90;7.10;;;;;;;12.81;78.91;100211.22;5092193;28;20028;-72
2021/05/06 02:47:46;;;;;;;9.20;6.60;;;;;;;12.77;79.03;100221.53;5092103;28;20025;-72
2021/05/06 02:50:20;;;;;;;10.00;9.00;;;;;;;12.73;79.07;100210.31;5092207;28;20030;-72
2021/05/06 02:53:04;;;;;;;9.95;8.98;;;;;;;12.76;79.18;100222.72;5092313;28;20050;-72
2021/05/06 02:55:42;;;;;;;;;;;;;;;12.73;79.52;100218.69;5092805;28;20382;-72
2021/05/06 02:58:19;;;;;;;10.93;9.80;;;;;;;12.71;79.50;100214.66;5092681;28;19908;-72
2021/05/06 03:03:35;;;;;;;;;;;;;;;12.72;79.40;100219.84;5094105;28;20493;-72
2021/05/06 03:06:01;;;;;;;17.65;15.90;;;;;;;12.67;79.51;100211.00;5092113;28;19908;-72
2021/05/06 03:08:37;;;;;;;19.13;17.23;;;;;;;12.68;78.88;100201.47;5091583;28;20035;-72
2021/05/06 03:24:31;;;;;;;11.55;9.50;;;;;;;12.55;79.51;100221.19;5097058;28;19916;-72
2021/05/06 03:26:58;;;;;;;7.28;6.45;;;;;;;12.55;79.18;100215.63;5096618;28;20063;-72
2021/05/06 03:29:29;;;;;;;6.80;6.18;;;;;;;12.55;79.52;100215.63;5095247;28;20036;-71
2021/05/06 04:16:13;;;;;;;6.95;6.22;;;;;;;12.82;78.01;100260.28;5095989;28;20067;-71
2021/05/06 04:18:53;;;;;;;9.70;6.50;;;;;;;12.91;77.95;100265.59;5094909;28;20528;-73
2021/05/06 04:29:54;;;;;;;9.88;6.05;;;;;;;14.00;73.41;100275.78;5095708;28;20036;-71
2021/05/06 04:37:47;;;;;;;4.78;3.85;;;;;;;14.62;70.82;100285.19;5095321;28;20082;-71
2021/05/06 05:06:53;;;;;;;3.95;3.63;;;;;;;19.62;54.04;100321.75;5094786;28;20040;-71
2021/05/06 05:12:01;;;;;;;4.10;3.70;;;;;;;20.13;53.18;100324.69;5094347;28;20036;-72
2021/05/06 05:25:03;;;;;;;9.10;6.95;;;;;;;20.73;50.73;100333.56;5094846;28;20082;-72
2021/05/06 05:27:31;;;;;;;7.45;6.75;;;;;;;21.14;49.73;100331.19;5094026;28;20024;-72
2021/05/06 05:29:57;;;;;;;7.90;7.10;;;;;;;21.30;48.48;100332.56;5093099;28;20028;-72
2021/05/06 05:32:27;;;;;;;9.95;7.75;;;;;;;21.52;48.74;100335.78;5093382;28;20432;-72
2021/05/06 05:37:23;;;;;;;9.55;7.38;;;;;;;21.29;49.28;100330.94;5094153;28;20047;-72
2021/05/06 05:42:33;;;;;;;8.93;7.22;;;;;;;21.94;46.99;100334.94;5094211;28;20173;-72
2021/05/06 05:56:11;;;;;;;11.15;7.93;;;;;;;19.29;55.02;100345.06;5071648;28;20040;-71
2021/05/06 05:58:37;;;;;;;10.23;8.55;;;;;;;19.76;54.02;100334.06;5076824;28;20055;-71
2021/05/06 06:01:02;;;;;;;8.80;7.93;;;;;;;19.53;54.55;100341.16;5093207;28;20070;-72
2021/05/06 06:03:33;;;;;;;9.05;8.23;;;;;;;18.04;59.77;100340.34;5092104;28;20031;-72
2021/05/06 06:06:00;;;;;;;13.32;10.13;;;;;;;18.69;58.91;100358.47;5092822;28;20166;-72
2021/05/06 06:08:44;;;;;;;9.20;8.40;;;;;;;19.66;55.03;100354.78;5109452;28;20035;-71
2021/05/06 06:11:10;;;;;;;11.80;8.32;;;;;;;20.17;53.81;100353.72;5092616;28;20379;-72
2021/05/06 06:13:38;;;;;;;9.02;8.23;;;;;;;21.02;51.32;100345.16;5092414;28;20032;-72
2021/05/06 06:16:21;;;;;;;9.27;7.90;;;;;;;21.33;50.45;100352.31;5092472;28;20032;-72
2021/05/06 06:18:53;;;;;;;9.35;8.35;;;;;;;21.17;51.64;100352.97;5092114;28;20028;-72
2021/05/06 06:21:23;;;;;;;9.30;8.40;;;;;;;21.25;51.19;100358.50;5092047;28;20036;-72
2021/05/06 06:23:52;;;;;;;8.15;7.15;;;;;;;21.11;51.51;100366.03;5092095;28;20360;-72
2021/05/06 06:26:21;;;;;;;7.90;7.15;;;;;;;21.35;51.52;100368.84;5091665;28;20136;-72
2021/05/06 06:28:49;;;;;;;8.82;6.80;;;;;;;21.40;51.10;100366.31;5092399;28;20402;-72
2021/05/06 06:33:47;;;;;;;7.80;4.85;;;;;;;21.02;51.23;100368.59;5093244;28;20475;-72
2021/05/06 06:36:17;;;;;;;6.85;6.10;;;;;;;20.82;52.77;100371.34;5092033;28;20028;-71
2021/05/06 06:38:42;;;;;;;9.95;5.43;;;;;;;21.36;51.75;100382.59;5092013;28;20097;-71
2021/05/06 06:41:12;;;;;;;7.28;5.15;;;;;;;21.15;52.28;100383.75;5091812;28;20475;-71
2021/05/06 06:43:43;;;;;;;9.68;5.75;;;;;;;21.31;51.86;100385.91;5091719;28;20483;-71
2021/05/06 06:46:09;;;;;;;7.85;6.03;;;;;;;21.48;50.88;100388.84;5092723;28;20024;-71
2021/05/06 06:48:35;;;;;;;7.45;5.90;;;;;;;20.77;52.57;100383.13;5092140;28;20074;-70
2021/05/06 06:51:01;;;;;;;5.60;5.10;;;;;;;20.75;51.88;100388.44;5095899;28;20436;-71
2021/05/06 06:53:30;;;;;;;4.55;4.10;;;;;;;20.34;53.08;100397.84;5095663;28;20024;-71
2021/05/06 06:55:56;;;;;;;6.03;4.03;;;;;;;20.82;52.11;100393.16;5095522;28;20039;-71
2021/05/06 06:58:22;;;;;;;5.90;3.78;;;;;;;21.66;50.61;100395.75;5095464;28;20028;-71
2021/05/06 07:00:48;;;;;;;4.80;2.85;;;;;;;21.29;49.25;100393.19;5095389;28;20093;-71
2021/05/06 07:03:14;;;;;;;3.25;1.80;;;;;;;22.11;46.58;100392.47;5095232;28;20035;-71
2021/05/06 07:05:41;;;;;;;2.80;1.55;;;;;;;22.47;44.79;100386.81;5095433;28;20081;-71
2021/05/06 07:08:24;;;;;;;1.80;1.55;;;;;;;23.17;42.83;100398.94;5096719;28;20024;-71
2021/05/06 07:10:57;;;;;;;3.80;1.48;;;;;;;23.91;40.85;100390.47;5095343;28;20081;-72
2021/05/06 07:13:25;;;;;;;2.70;1.17;;;;;;;23.86;40.43;100396.72;5095281;28;20024;-71
2021/05/06 07:15:56;;;;;;;3.20;1.38;;;;;;;24.30;39.46;100394.25;5095203;28;20119;-72
2021/05/06 07:18:26;;;;;;;1.50;1.40;;;;;;;24.45;39.32;100401.13;5095256;28;20020;-72
2021/05/06 07:20:55;;;;;;;1.67;1.58;;;;;;;24.92;37.99;100402.47;5096548;28;20093;-72
2021/05/06 07:23:23;;;;;;;2.35;1.45;;;;;;;25.15;38.40;100405.00;5095231;28;20028;-72
2021/05/06 07:25:56;;;;;;;1.55;1.35;;;;;;;25.10;37.17;100410.47;5096227;28;20058;-72
2021/05/06 07:28:39;;;;;;;1.88;1.17;;;;;;;24.74;36.50;100405.91;5094851;28;20479;-72
2021/05/06 07:31:07;;;;;;;1.33;1.00;;;;;;;25.19;35.54;100408.50;5094910;28;20064;-72
2021/05/06 07:33:37;;;;;;;3.95;1.30;;;;;;;24.97;35.78;100416.94;5095425;28;20128;-72
2021/05/06 07:36:03;;;;;;;1.88;1.55;;;;;;;25.37;35.38;100413.63;5096043;28;20420;-72
2021/05/06 07:38:31;;;;;;;2.85;1.40;;;;;;;25.54;34.74;100412.19;5094752;28;20497;-72
2021/05/06 07:41:02;;;;;;;1.20;1.10;;;;;;;26.03;33.43;100425.91;5096362;28;20032;-72
2021/05/06 07:43:29;;;;;;;1.10;0.93;;;;;;;26.16;32.39;100427.94;5095955;28;20371;-72
2021/05/06 07:45:58;;;;;;;1.60;1.02;;;;;;;26.59;32.21;100433.59;5095173;28;20039;-72
2021/05/06 07:48:27;;;;;;;2.95;1.10;;;;;;;26.00;33.80;100429.72;5094475;28;20085;-72
2021/05/06 07:50:54;;;;;;;1.92;1.20;;;;;;;25.79;33.03;100428.44;5095005;28;20032;-72
2021/05/06 07:53:26;;;;;;;1.30;1.20;;;;;;;26.26;32.03;100421.00;5094280;28;20028;-72
2021/05/06 07:55:57;;;;;;;2.15;1.05;;;;;;;25.16;32.62;100411.50;5095085;28;20028;-72
2021/05/06 07:58:24;;;;;;;1.30;0.93;;;;;;;24.53;34.32;100419.53;5094322;28;20132;-72
2021/05/06 08:00:54;;;;;;;2.25;1.08;;;;;;;24.11;35.24;100415.09;5093708;28;20032;-72
2021/05/06 08:03:23;;;;;;;1.27;1.10;;;;;;;25.30;33.67;100411.81;5094324;28;20055;-72
2021/05/06 08:05:49;;;;;;;1.75;1.08;;;;;;;25.11;32.32;100409.22;5094277;28;20063;-72
2021/05/06 08:08:15;;;;;;;2.67;1.13;;;;;;;25.36;32.99;100417.72;5094455;28;20051;-72
2021/05/06 08:10:46;;;;;;;1.10;1.00;;;;;;;25.61;33.07;100411.13;5094546;28;20036;-72
2021/05/06 08:13:11;;;;;;;1.25;0.95;;;;;;;26.43;32.11;100422.44;5095267;28;20024;-72
2021/05/06 08:15:37;;;;;;;3.25;1.30;;;;;;;26.86;30.11;100417.88;5094115;28;20105;-72
2021/05/06 08:18:03;;;;;;;1.30;1.20;;;;;;;25.57;31.92;100419.81;5094109;28;20081;-72
2021/05/06 08:20:28;;;;;;;3.55;1.00;;;;;;;25.96;30.57;100420.50;5094723;28;20035;-73
2021/05/06 08:22:54;;;;;;;1.02;0.90;;;;;;;24.72;32.94;100414.91;5094361;28;20032;-72
2021/05/06 08:25:24;;;;;;;1.33;0.95;;;;;;;25.02;31.83;100421.25;5093678;28;20047;-71
2021/05/06 08:27:52;;;;;;;1.15;1.00;;;;;;;25.67;30.86;100411.34;5094190;28;20020;-72
2021/05/06 08:30:18;;;;;;;5.80;1.08;;;;;;;24.70;31.68;100413.75;5095711;28;20045;-72
2021/05/06 08:32:44;;;;;;;1.42;1.02;;;;;;;25.89;29.99;100403.66;5094179;28;20032;-72
2021/05/06 08:35:15;;;;;;;1.27;1.10;;;;;;;26.20;29.62;100411.47;5094393;28;20442;-72
2021/05/06 08:37:43;;;;;;;1.85;1.10;;;;;;;26.72;28.36;100401.31;5094999;28;20031;-72
2021/05/06 08:40:14;;;;;;;1.42;1.25;;;;;;;27.09;27.65;100408.78;5093543;28;20097;-72
2021/05/06 08:42:42;;;;;;;2.05;0.85;;;;;;;26.26;28.58;100409.59;5093865;28;20483;-72
2021/05/06 08:45:11;;;;;;;3.40;0.88;;;;;;;26.99;28.22;100409.97;5093446;28;20028;-72
2021/05/06 08:47:39;;;;;;;4.18;1.10;;;;;;;27.45;27.75;100407.25;5093657;28;20047;-72
2021/05/06 08:50:09;;;;;;;1.65;1.13;;;;;;;26.63;28.74;100420.00;5093703;28;20501;-73
2021/05/06 08:52:40;;;;;;;2.03;0.80;;;;;;;26.59;29.11;100412.84;5093246;28;20028;-73
2021/05/06 08:55:06;;;;;;;3.00;1.15;;;;;;;27.24;27.64;100413.91;5094653;28;20053;-73
2021/05/06 08:57:32;;;;;;;1.50;1.10;;;;;;;27.83;26.34;100414.63;5093608;28;20028;-73
2021/05/06 08:59:58;;;;;;;2.03;0.80;;;;;;;26.50;28.00;100412.78;5093486;28;20089;-72
2021/05/06 09:02:23;;;;;;;0.95;0.80;;;;;;;25.59;28.71;100416.50;5093519;28;20032;-72
2021/05/06 09:04:51;;;;;;;1.60;0.77;;;;;;;26.74;27.28;100410.19;5092838;28;20031;-72
2021/05/06 09:07:16;;;;;;;1.75;1.00;;;;;;;25.75;28.04;100398.47;5093128;28;20023;-72
2021/05/06 09:09:51;;;;;;;0.80;0.80;;;;;;;25.77;29.05;100396.72;5093546;28;20055;-72
2021/05/06 09:12:36;;;;;;;2.65;0.93;;;;;;;25.78;29.24;100404.06;5092721;28;20025;-72
2021/05/06 09:15:09;;;;;;;1.20;1.02;;;;;;;25.61;28.98;100406.22;5093165;28;20449;-72
2021/05/06 09:17:37;;;;;;;1.25;0.90;;;;;;;26.27;27.90;100414.06;5094488;28;20024;-72
2021/05/06 09:20:05;;;;;;;2.33;0.90;;;;;;;26.23;28.12;100388.53;5093060;28;20126;-72
2021/05/06 09:22:51;;;;;;;2.47;1.25;;;;;;;25.63;29.40;100413.53;5092938;28;20032;-73
2021/05/06 09:25:36;;;;;;;1.27;0.82;;;;;;;25.85;28.62;100409.47;5094219;28;20052;-72
2021/05/06 09:28:02;;;;;;;2.38;0.98;;;;;;;25.47;29.37;100411.66;5093730;28;20356;-72
2021/05/06 09:30:28;;;;;;;0.82;0.82;;;;;;;25.98;28.64;100420.81;5092687;28;20137;-72
2021/05/06 09:33:05;;;;;;;3.97;1.02;;;;;;;25.54;28.87;100412.19;5092479;28;20036;-72
2021/05/06 09:35:47;;;;;;;1.33;0.65;;;;;;;25.44;29.94;100409.72;5076048;28;20028;-72
2021/05/06 09:38:29;;;;;;;0.85;0.82;;;;;;;25.98;28.73;100412.25;5092983;28;20055;-72
2021/05/06 09:40:58;;;;;;;2.28;0.80;;;;;;;25.06;30.84;100397.16;5092565;28;20028;-72
2021/05/06 09:43:26;;;;;;;0.98;0.90;;;;;;;25.93;29.81;100410.00;5092804;28;20146;-72
2021/05/06 09:45:55;;;;;;;1.40;0.95;;;;;;;25.59;30.76;100405.91;5094087;28;20069;-72
2021/05/06 09:48:24;;;;;;;0.75;0.75;;;;;;;25.60;30.23;100416.03;5092495;28;20031;-72
2021/05/06 09:51:04;;;;;;;1.70;1.25;;;;;;;25.89;29.71;100403.66;5092738;28;20485;-73
2021/05/06 09:53:34;;;;;;;0.95;0.90;;;;;;;25.81;29.99;100419.41;5093762;28;20035;-72
2021/05/06 09:56:05;;;;;;;0.95;0.80;;;;;;;25.45;29.88;100406.41;5094151;28;20104;-72
2021/05/06 09:58:33;;;;;;;1.10;0.73;;;;;;;24.98;30.85;100404.31;5092834;28;20069;-72
2021/05/06 10:01:09;;;;;;;1.35;0.90;;;;;;;25.66;30.74;100407.69;5094226;28;20023;-72
2021/05/06 10:03:38;;;;;;;1.98;1.00;;;;;;;25.63;30.60;100413.53;5092464;28;20075;-72
2021/05/06 10:06:19;;;;;;;0.95;0.80;;;;;;;25.65;30.39;100411.00;5092513;28;20494;-72
2021/05/06 10:08:48;;;;;;;2.63;1.10;;;;;;;25.15;31.58;100412.75;5092243;28;20058;-72
2021/05/06 10:11:19;;;;;;;1.58;1.02;;;;;;;25.22;31.19;100409.66;5092754;28;20475;-72
2021/05/06 10:13:47;;;;;;;0.93;0.80;;;;;;;26.23;30.09;100413.41;5092187;28;20031;-72
2021/05/06 10:16:15;;;;;;;1.05;0.82;;;;;;;24.80;31.78;100404.88;5093455;28;20032;-72
2021/05/06 10:18:45;;;;;;;1.35;0.82;;;;;;;24.30;32.92;100405.63;5092166;28;20028;-72
2021/05/06 10:21:17;;;;;;;0.95;0.93;;;;;;;25.08;31.91;100408.88;5092137;28;20081;-72
2021/05/06 10:23:44;;;;;;;1.80;1.30;;;;;;;25.35;31.42;100410.41;5094137;28;20382;-72
2021/05/06 10:26:10;;;;;;;0.80;0.80;;;;;;;25.21;31.58;100410.91;5096045;28;20293;-72
2021/05/06 10:28:36;;;;;;;1.15;0.85;;;;;;;25.41;31.61;100405.75;5096328;28;20378;-72
2021/05/06 10:31:05;;;;;;;1.05;1.05;;;;;;;25.53;31.71;100384.97;5096774;28;20062;-72
2021/05/06 10:33:40;;;;;;;1.35;1.05;;;;;;;25.10;31.35;100414.13;5095997;28;20047;-72
2021/05/06 10:36:07;;;;;;;1.58;0.95;;;;;;;24.82;31.76;100424.34;5096011;28;20093;-72
2021/05/06 10:38:35;;;;;;;2.22;1.45;;;;;;;25.12;31.38;100425.84;5096002;28;20085;-72
2021/05/06 10:41:22;;;;;;;1.63;1.52;;;;;;;25.06;31.46;100425.63;5096591;28;20032;-72
2021/05/06 10:44:02;;;;;;;1.25;1.08;;;;;;;25.17;31.71;100413.88;5095896;28;20030;-72
2021/05/06 10:46:46;;;;;;;2.20;0.90;;;;;;;25.47;31.76;100406.75;5096443;28;20036;-72
2021/05/06 10:49:17;;;;;;;1.15;1.13;;;;;;;24.83;32.61;100397.50;5095759;28;20027;-72
2021/05/06 10:51:48;;;;;;;3.00;0.80;;;;;;;24.80;33.23;100398.38;5096385;28;20449;-72
2021/05/06 10:54:28;;;;;;;0.77;0.77;;;;;;;24.43;33.61;100392.22;5095706;28;20059;-72
2021/05/06 10:56:59;;;;;;;2.05;0.80;;;;;;;24.92;33.17;100394.72;5095742;28;20030;-72
2021/05/06 10:59:31;;;;;;;2.40;0.80;;;;;;;25.02;33.09;100396.44;5095635;28;20024;-72
2021/05/06 11:02:00;;;;;;;5.37;0.93;;;;;;;24.72;33.64;100402.72;5096795;28;20056;-72
2021/05/06 11:04:37;;;;;;;2.97;1.40;;;;;;;24.10;34.80;100399.31;5095846;28;20361;-72
2021/05/06 11:07:31;;;;;;;4.85;1.00;;;;;;;23.73;36.00;100408.03;5096353;28;20016;-72
2021/05/06 11:10:01;;;;;;;1.52;1.20;;;;;;;23.51;35.58;100407.78;5093010;28;20040;-72
2021/05/06 11:12:29;;;;;;;1.90;1.17;;;;;;;23.36;35.95;100423.59;5095985;28;20355;-72
2021/05/06 11:15:01;;;;;;;3.70;0.90;;;;;;;23.44;35.76;100384.50;5095682;28;20502;-72
2021/05/06 11:17:33;;;;;;;5.37;1.13;;;;;;;23.81;35.71;100408.66;5095811;28;20157;-72
2021/05/06 11:20:10;;;;;;;1.65;0.98;;;;;;;23.81;35.62;100387.94;5095713;28;20258;-72
2021/05/06 11:22:46;;;;;;;2.78;1.20;;;;;;;23.63;36.07;100386.41;5096015;28;20055;-72
2021/05/06 11:25:31;;;;;;;7.82;1.52;;;;;;;23.28;36.82;100391.00;5094696;28;20048;-72
2021/05/06 11:28:02;;;;;;;2.28;0.82;;;;;;;23.58;36.09;100377.59;5095898;28;20024;-72
2021/05/06 11:30:31;;;;;;;2.83;1.02;;;;;;;23.93;35.79;100405.06;5096441;28;20028;-72
2021/05/06 11:33:24;;;;;;;0.80;0.80;;;;;;;23.19;37.05;100414.31;5095069;28;20024;-72
2021/05/06 11:35:55;;;;;;;1.33;0.85;;;;;;;22.43;38.43;100414.47;5096214;28;20031;-72
2021/05/06 11:38:20;;;;;;;1.92;1.00;;;;;;;22.31;38.02;100417.16;5094991;28;20036;-72
2021/05/06 11:40:46;;;;;;;0.82;0.73;;;;;;;22.57;37.55;100432.38;5095047;28;20039;-72
2021/05/06 11:43:21;;;;;;;1.63;1.15;;;;;;;22.84;37.45;100430.13;5096310;28;20059;-72
2021/05/06 11:45:49;;;;;;;1.20;0.82;;;;;;;23.04;37.28;100423.63;5094835;28;20061;-72
2021/05/06 11:48:18;;;;;;;0.98;0.73;;;;;;;23.15;36.94;100418.47;5095273;28;20028;-72
2021/05/06 11:50:45;;;;;;;1.40;1.30;;;;;;;23.40;36.94;100415.81;5094828;28;20036;-72
2021/05/06 11:53:15;;;;;;;4.57;1.65;;;;;;;23.86;35.76;100425.13;5094763;28;20024;-72
2021/05/06 11:55:46;;;;;;;2.28;1.05;;;;;;;24.07;35.78;100417.25;5096529;28;20367;-72
2021/05/06 11:58:25;;;;;;;2.97;1.40;;;;;;;23.66;37.04;100421.66;5094900;28;20532;-72
2021/05/06 12:00:54;;;;;;;1.35;1.10;;;;;;;23.98;37.21;100415.88;5095897;28;20024;-72
2021/05/06 12:03:20;;;;;;;2.85;1.30;;;;;;;23.65;36.95;100406.66;5094583;28;20034;-72
2021/05/06 12:05:47;;;;;;;0.80;0.80;;;;;;;23.83;36.36;100396.84;5094447;28;20031;-72
2021/05/06 12:08:13;;;;;;;2.13;1.20;;;;;;;23.92;37.04;100409.16;5094394;28;20027;-72
2021/05/06 12:10:42;;;;;;;1.08;0.88;;;;;;;22.88;39.52;100399.66;5094396;28;20112;-72
2021/05/06 12:13:11;;;;;;;3.03;1.35;;;;;;;23.53;38.04;100418.69;5094570;28;20430;-72
2021/05/06 12:15:37;;;;;;;2.25;1.00;;;;;;;23.42;38.49;100407.63;5094396;28;20050;-72
2021/05/06 12:18:18;;;;;;;3.75;1.10;;;;;;;22.87;39.83;100415.06;5094166;28;20032;-72
2021/05/06 12:20:57;;;;;;;4.00;1.08;;;;;;;22.25;41.27;100402.69;5094110;28;20094;-71
2021/05/06 12:23:25;;;;;;;1.63;1.00;;;;;;;22.90;38.79;100402.84;5094542;28;20119;-72
2021/05/06 12:25:51;;;;;;;1.00;0.82;;;;;;;22.56;39.21;100393.94;5093936;28;20060;-71
2021/05/06 12:28:21;;;;;;;1.33;1.05;;;;;;;22.29;38.61;100405.47;5093853;28;20021;-72
2021/05/06 12:30:48;;;;;;;1.85;0.77;;;;;;;22.88;38.61;100408.19;5094169;28;20183;-71
2021/05/06 12:33:28;;;;;;;1.65;0.90;;;;;;;22.86;38.75;100407.00;5092171;28;20043;-71
2021/05/06 12:35:54;;;;;;;1.02;0.80;;;;;;;23.00;38.60;100398.16;5093778;28;20036;-71
2021/05/06 12:38:20;;;;;;;3.95;1.00;;;;;;;23.22;38.52;100406.94;5093922;28;20081;-71
2021/05/06 12:40:46;;;;;;;1.25;0.75;;;;;;;23.28;38.04;100413.69;5093688;28;20062;-71
2021/05/06 12:43:51;;;;;;;0.70;0.70;;;;;;;23.55;36.95;100409.75;5093762;28;20020;-72
2021/05/06 12:46:27;;;;;;;1.08;0.90;;;;;;;23.30;37.60;100401.88;5069240;28;20143;-71
2021/05/06 12:48:55;;;;;;;2.30;0.73;;;;;;;23.39;37.73;100388.66;5094787;28;20024;-72
2021/05/06 12:51:30;;;;;;;1.60;0.98;;;;;;;23.87;37.45;100386.97;5094139;28;20036;-71
2021/05/06 12:54:10;;;;;;;6.72;1.08;;;;;;;23.65;36.90;100383.13;5094976;28;20382;-72
2021/05/06 12:56:39;;;;;;;1.33;0.93;;;;;;;23.01;39.11;100379.91;5094431;28;20064;-71
2021/05/06 12:59:31;;;;;;;4.18;1.52;;;;;;;23.25;37.59;100377.66;5093589;28;20375;-71
2021/05/06 13:02:10;;;;;;;3.05;1.25;;;;;;;23.17;38.33;100364.91;5093285;28;20114;-71
2021/05/06 13:04:45;;;;;;;1.73;0.80;;;;;;;23.50;37.54;100365.66;5095003;28;20024;-71
2021/05/06 13:07:11;;;;;;;1.15;0.70;;;;;;;22.94;38.05;100368.72;5093193;28;20024;-72
2021/05/06 13:09:49;;;;;;;4.90;0.90;;;;;;;22.61;38.71;100365.84;5093105;28;20077;-71
2021/05/06 13:12:17;;;;;;;1.58;0.90;;;;;;;22.47;39.77;100363.34;5093186;28;20036;-71
2021/05/06 13:14:51;;;;;;;1.17;0.98;;;;;;;22.75;39.33;100357.00;5093112;28;20043;-71
2021/05/06 13:17:34;;;;;;;1.23;1.10;;;;;;;22.92;40.19;100349.31;5093040;28;20043;-72
2021/05/06 13:20:15;;;;;;;3.50;1.27;;;;;;;22.63;40.94;100314.34;5093014;28;20082;-72
2021/05/06 13:22:40;;;;;;;1.17;0.98;;;;;;;22.29;41.63;100332.56;5092581;28;20024;-71
2021/05/06 13:25:07;;;;;;;2.20;1.10;;;;;;;22.06;42.46;100339.13;5092121;28;20055;-71
2021/05/06 13:27:44;;;;;;;1.05;0.95;;;;;;;21.88;43.20;100350.03;5092866;28;20119;-72
2021/05/06 13:30:13;;;;;;;2.00;1.10;;;;;;;22.27;42.06;100360.56;5075799;28;20096;-72
2021/05/06 13:32:41;;;;;;;4.30;1.42;;;;;;;22.56;41.03;100342.88;5092811;28;20028;-71
2021/05/06 13:35:15;;;;;;;5.47;1.50;;;;;;;22.52;41.43;100339.34;5094669;28;20170;-71
2021/05/06 13:37:46;;;;;;;3.47;0.90;;;;;;;22.34;42.05;100349.06;5092676;28;20028;-71
2021/05/06 13:40:15;;;;;;;1.55;0.90;;;;;;;21.88;43.46;100350.81;5093147;28;20343;-71
2021/05/06 13:42:41;;;;;;;3.47;1.00;;;;;;;21.93;43.92;100343.84;5093532;28;20032;-71
2021/05/06 13:45:11;;;;;;;4.57;1.10;;;;;;;22.27;43.49;100351.28;5092517;28;20360;-72
2021/05/06 13:47:47;;;;;;;3.05;1.33;;;;;;;22.05;43.07;100303.53;5092520;28;20089;-71
2021/05/06 13:50:17;;;;;;;1.80;0.75;;;;;;;22.35;42.30;100330.81;5092538;28;20063;-73
2021/05/06 13:52:44;;;;;;;1.92;1.30;;;;;;;22.37;42.22;100330.34;5092820;28;20024;-73
2021/05/06 13:55:14;;;;;;;2.10;0.90;;;;;;;22.61;42.13;100334.66;5092576;28;20036;-73
2021/05/06 13:57:40;;;;;;;1.38;0.93;;;;;;;22.66;42.26;100333.34;5092422;28;20035;-73
2021/05/06 14:00:10;;;;;;;2.58;0.93;;;;;;;22.32;42.97;100331.69;5093409;28;20355;-71
2021/05/06 14:02:35;;;;;;;3.42;1.38;;;;;;;22.54;42.99;100328.38;5093349;28;20040;-71
2021/05/06 14:05:04;;;;;;;5.32;1.10;;;;;;;22.60;43.59;100343.59;5092176;28;20061;-72
2021/05/06 14:07:32;;;;;;;3.53;1.20;;;;;;;22.41;43.40;100325.41;5092299;28;20032;-71
2021/05/06 14:10:03;;;;;;;0.90;0.90;;;;;;;22.24;43.40;100327.41;5092121;28;20498;-72
2021/05/06 14:12:34;;;;;;;3.30;1.35;;;;;;;22.27;43.45;100337.09;5092545;28;20123;-71
2021/05/06 14:14:59;;;;;;;1.63;1.20;;;;;;;21.82;44.80;100329.13;5092539;28;20024;-71
2021/05/06 14:17:30;;;;;;;2.83;1.30;;;;;;;21.78;44.24;100332.00;5092234;28;20036;-71
2021/05/06 14:19:56;;;;;;;7.00;1.70;;;;;;;22.06;43.74;100329.84;5092136;28;20062;-72
2021/05/06 14:22:23;;;;;;;2.08;0.90;;;;;;;21.98;44.22;100334.84;5092366;28;20028;-71
2021/05/06 14:24:48;;;;;;;6.95;1.48;;;;;;;22.03;44.52;100319.38;5093312;28;20044;-71
2021/05/06 14:27:14;;;;;;;2.00;1.20;;;;;;;21.88;45.03;100316.03;5092168;28;20375;-71
2021/05/06 14:29:42;;;;;;;2.53;1.08;;;;;;;22.01;45.24;100304.84;5092002;28;20032;-71
2021/05/06 14:32:15;;;;;;;1.88;1.00;;;;;;;21.83;45.76;100306.00;5092635;28;20367;-71
2021/05/06 14:34:42;;;;;;;1.65;0.95;;;;;;;21.90;45.60;100313.59;5092384;28;20449;-72
2021/05/06 14:37:10;;;;;;;2.80;1.08;;;;;;;21.94;45.65;100312.28;5092975;28;20031;-72
2021/05/06 14:39:36;;;;;;;0.80;0.80;;;;;;;21.92;45.64;100317.56;5092238;28;20057;-71
2021/05/06 14:42:04;;;;;;;1.42;0.90;;;;;;;21.87;45.77;100315.25;5092505;28;20451;-71
2021/05/06 14:44:30;;;;;;;3.15;1.17;;;;;;;21.65;46.39;100303.56;5091904;28;20033;-71
2021/05/06 14:46:56;;;;;;;3.03;1.17;;;;;;;21.93;46.00;100304.19;5092159;28;20023;-71
2021/05/06 14:49:21;;;;;;;1.77;1.00;;;;;;;21.49;46.58;100311.19;5091991;28;20028;-71
2021/05/06 14:51:50;;;;;;;1.75;1.10;;;;;;;21.28;47.33;100296.19;5091800;28;20398;-72
2021/05/06 14:54:15;;;;;;;3.17;1.17;;;;;;;21.76;46.61;100289.19;5092069;28;20515;-70
2021/05/06 14:56:41;;;;;;;3.15;1.77;;;;;;;21.86;46.33;100307.97;5091990;28;20212;-71
2021/05/06 14:59:09;;;;;;;2.88;0.90;;;;;;;21.97;46.34;100296.41;5091737;28;20112;-71
2021/05/06 15:01:37;;;;;;;2.17;1.48;;;;;;;21.82;46.79;100301.59;5091739;28;20031;-71
2021/05/06 15:04:06;;;;;;;2.92;1.10;;;;;;;22.15;46.72;100308.19;5092327;28;20127;-71
2021/05/06 15:06:36;;;;;;;1.92;1.05;;;;;;;22.04;46.72;100306.78;5092294;28;20036;-71
2021/05/06 15:09:05;;;;;;;2.00;0.75;;;;;;;21.72;47.38;100294.13;5092019;28;20047;-71
2021/05/06 15:11:31;;;;;;;1.65;1.27;;;;;;;21.51;47.92;100297.38;5095689;28;20475;-71